Time;durP1;ratioP1;P1;durP2;ratioP2;P2;SDS_P1;SDS_P2;PMS_P1;PMS_P2;Temp;Humidity;BMP_temperature;BMP_pressure;BME280_temperature;BME280_humidity;BME280_pressure;Samples;Min_cycle;Max_cycle;Signal;HPM_P1;HPM_P2
2023/10/13 00:01:22;;;;;;;7.07;4.30;;;18.10;93.10;;;;;;4998319;28;20419;-84
2023/10/13 00:03:47;;;;;;;6.80;4.50;;;18.10;93.10;;;;;;4998230;28;20045;-84
2023/10/13 00:06:13;;;;;;;7.13;4.72;;;18.10;93.10;;;;;;4998271;28;20484;-84
2023/10/13 00:08:39;;;;;;;7.32;4.50;;;18.10;93.10;;;;;;5015913;28;20049;-84
2023/10/13 00:11:05;;;;;;;6.85;4.55;;;18.10;93.10;;;;;;4998226;28;20034;-84
2023/10/13 00:13:42;;;;;;;6.15;4.13;;;18.10;93.10;;;;;;5015567;28;20101;-84
2023/10/13 00:16:09;;;;;;;7.20;4.93;;;18.10;93.10;;;;;;4998248;28;20034;-84
2023/10/13 00:18:41;;;;;;;6.57;4.55;;;18.10;93.10;;;;;;4998138;28;20025;-84
2023/10/13 00:21:15;;;;;;;6.38;3.95;;;18.10;93.00;;;;;;5015762;28;20539;-84
2023/10/13 00:23:52;;;;;;;6.35;4.07;;;18.10;93.00;;;;;;4997902;28;20026;-84
2023/10/13 00:26:28;;;;;;;6.72;4.15;;;18.20;93.00;;;;;;4997999;28;20559;-84
2023/10/13 00:31:36;;;;;;;5.82;3.90;;;18.20;93.00;;;;;;5015768;28;20030;-84
2023/10/13 00:34:09;;;;;;;6.82;4.10;;;18.10;92.90;;;;;;4997619;28;20117;-84
2023/10/13 00:36:35;;;;;;;6.53;4.20;;;18.20;93.00;;;;;;5015707;28;20021;-84
2023/10/13 00:39:03;;;;;;;6.80;4.18;;;18.20;93.00;;;;;;4997928;28;20156;-84
2023/10/13 00:44:16;;;;;;;7.03;4.00;;;18.10;93.00;;;;;;5015414;28;20025;-84
2023/10/13 00:46:44;;;;;;;6.60;4.32;;;18.20;93.00;;;;;;4997691;28;20424;-83
2023/10/13 00:49:15;;;;;;;6.93;4.43;;;18.10;93.00;;;;;;5015250;28;20017;-83
2023/10/13 00:51:46;;;;;;;6.30;3.73;;;18.20;93.10;;;;;;5015308;28;20105;-83
2023/10/13 00:54:13;;;;;;;;;;;18.10;93.10;;;;;;4997904;28;20805;-83
2023/10/13 00:56:46;;;;;;;6.88;4.22;;;18.10;93.10;;;;;;4997791;28;19902;-83
2023/10/13 00:59:14;;;;;;;6.65;4.10;;;18.10;93.10;;;;;;4997593;28;20025;-84
2023/10/13 01:01:42;;;;;;;7.03;4.40;;;18.10;93.10;;;;;;4997334;28;20176;-84
2023/10/13 01:04:11;;;;;;;6.80;4.55;;;18.10;93.10;;;;;;4997128;28;20391;-84
2023/10/13 01:06:37;;;;;;;6.20;4.28;;;18.00;93.10;;;;;;4997248;28;20373;-83
2023/10/13 01:11:53;;;;;;;6.28;4.00;;;18.10;93.10;;;;;;5015065;28;20026;-84
2023/10/13 01:14:20;;;;;;;7.85;3.80;;;18.10;93.10;;;;;;4997078;28;20117;-84
2023/10/13 01:16:47;;;;;;;6.72;4.63;;;18.10;93.10;;;;;;4997107;28;20026;-84
2023/10/13 01:19:13;;;;;;;6.03;3.92;;;18.10;93.10;;;;;;4997403;28;20022;-84
2023/10/13 01:21:40;;;;;;;6.22;4.07;;;18.10;93.10;;;;;;4996975;28;20041;-84
2023/10/13 01:24:07;;;;;;;6.88;4.53;;;18.20;93.00;;;;;;4996841;28;20076;-83
2023/10/13 01:26:38;;;;;;;6.03;4.03;;;18.20;93.00;;;;;;4997192;28;20022;-84
2023/10/13 01:29:14;;;;;;;6.40;3.97;;;18.20;93.00;;;;;;4997082;28;20018;-83
2023/10/13 01:31:47;;;;;;;7.13;4.88;;;18.20;93.00;;;;;;4998142;28;20268;-82
2023/10/13 01:34:14;;;;;;;6.53;4.25;;;18.20;93.10;;;;;;4997180;28;20432;-82
2023/10/13 01:36:40;;;;;;;7.00;4.07;;;18.20;93.10;;;;;;4996667;28;20056;-84
2023/10/13 01:39:07;;;;;;;6.47;4.30;;;18.10;93.10;;;;;;4996800;28;20022;-83
2023/10/13 01:41:37;;;;;;;6.55;4.15;;;18.10;93.10;;;;;;4996656;28;20025;-84
2023/10/13 01:44:03;;;;;;;6.05;4.00;;;18.20;93.10;;;;;;4996393;28;20022;-84
2023/10/13 01:46:29;;;;;;;6.53;4.35;;;18.10;93.10;;;;;;4996717;28;20137;-83
2023/10/13 01:48:57;;;;;;;8.00;4.60;;;18.10;93.10;;;;;;4996542;28;20030;-84
2023/10/13 01:51:28;;;;;;;6.45;4.40;;;18.10;93.10;;;;;;4996441;28;20021;-84
2023/10/13 01:53:56;;;;;;;7.57;4.80;;;18.10;93.20;;;;;;4996466;28;20063;-83
2023/10/13 01:56:29;;;;;;;6.85;4.70;;;18.10;93.20;;;;;;4996258;28;20079;-84
2023/10/13 01:58:55;;;;;;;6.57;4.20;;;18.10;93.20;;;;;;5013968;28;20449;-84
2023/10/13 02:01:26;;;;;;;6.78;4.22;;;18.10;93.20;;;;;;4996400;28;20065;-84
2023/10/13 02:04:03;;;;;;;7.53;4.80;;;18.10;93.20;;;;;;4996031;28;20014;-83
2023/10/13 02:06:33;;;;;;;6.50;4.28;;;18.10;93.20;;;;;;5013684;28;20034;-84
2023/10/13 02:09:10;;;;;;;6.63;4.57;;;18.10;93.20;;;;;;4996149;28;20295;-83
2023/10/13 02:11:38;;;;;;;6.53;4.38;;;18.10;93.20;;;;;;4996422;28;20045;-84
2023/10/13 02:14:03;;;;;;;6.35;4.22;;;18.10;93.20;;;;;;4995793;28;20486;-84
2023/10/13 02:16:30;;;;;;;6.65;4.80;;;18.10;93.30;;;;;;4996079;28;20121;-84
2023/10/13 02:18:57;;;;;;;6.10;4.00;;;18.10;93.30;;;;;;4996002;28;20030;-84
2023/10/13 02:21:31;;;;;;;6.20;3.90;;;18.10;93.30;;;;;;4995823;28;20036;-84
2023/10/13 02:24:00;;;;;;;6.53;4.47;;;18.10;93.10;;;;;;4995405;28;20018;-84
2023/10/13 02:26:38;;;;;;;6.50;4.55;;;18.20;93.10;;;;;;4995776;28;20014;-84
2023/10/13 02:29:07;;;;;;;6.22;4.22;;;18.20;93.10;;;;;;5013488;28;20120;-84
2023/10/13 02:31:36;;;;;;;6.10;3.70;;;18.20;93.10;;;;;;4995911;28;20368;-84
2023/10/13 02:34:08;;;;;;;7.30;4.47;;;18.10;93.10;;;;;;4995339;28;20030;-84
2023/10/13 02:36:37;;;;;;;6.45;4.45;;;18.10;93.10;;;;;;5013261;28;20025;-84
2023/10/13 02:39:08;;;;;;;6.50;4.30;;;18.10;93.10;;;;;;4995557;28;20025;-84
2023/10/13 02:41:38;;;;;;;6.35;4.15;;;18.10;93.10;;;;;;4995435;28;20038;-84
2023/10/13 02:44:06;;;;;;;6.05;4.28;;;18.10;93.10;;;;;;4995263;28;20025;-84
2023/10/13 02:46:35;;;;;;;6.22;4.45;;;18.10;93.20;;;;;;4995586;28;20112;-84
2023/10/13 02:49:09;;;;;;;7.03;4.22;;;18.10;93.20;;;;;;4995618;28;20439;-84
2023/10/13 02:51:35;;;;;;;5.85;4.15;;;18.10;93.20;;;;;;4995487;28;20022;-84
2023/10/13 02:54:11;;;;;;;6.20;4.18;;;18.10;93.20;;;;;;5021719;28;20021;-84
2023/10/13 02:56:48;;;;;;;6.10;4.20;;;18.10;93.20;;;;;;5020148;28;20104;-84
2023/10/13 02:59:14;;;;;;;5.95;3.90;;;18.10;93.20;;;;;;5014912;28;20026;-84
2023/10/13 03:01:39;;;;;;;5.85;4.13;;;18.10;93.20;;;;;;5014819;28;20182;-84
2023/10/13 03:04:12;;;;;;;7.22;4.63;;;18.00;93.20;;;;;;5032165;28;20100;-84
2023/10/13 03:06:40;;;;;;;6.18;4.13;;;18.10;93.30;;;;;;5032409;28;20021;-84
2023/10/13 03:09:14;;;;;;;6.15;4.22;;;18.10;93.30;;;;;;5014844;28;20028;-84
2023/10/13 03:11:50;;;;;;;6.38;4.30;;;18.10;93.30;;;;;;5014836;28;20025;-84
2023/10/13 03:14:32;;;;;;;6.28;4.35;;;18.10;93.30;;;;;;5014541;28;20021;-84
2023/10/13 03:17:06;;;;;;;7.13;4.65;;;18.10;93.30;;;;;;5032375;28;20486;-84
2023/10/13 03:19:36;;;;;;;5.95;4.00;;;18.10;93.40;;;;;;5014758;28;20026;-84
2023/10/13 03:22:09;;;;;;;6.03;4.10;;;18.10;93.30;;;;;;5032363;28;20026;-84
2023/10/13 03:24:36;;;;;;;5.80;4.10;;;18.10;93.30;;;;;;5014688;28;20052;-84
2023/10/13 03:27:08;;;;;;;6.53;4.30;;;18.10;93.20;;;;;;5032368;28;20100;-84
2023/10/13 03:29:44;;;;;;;5.82;3.70;;;18.10;93.10;;;;;;5014640;28;20026;-84
2023/10/13 03:32:11;;;;;;;6.40;4.60;;;18.10;93.20;;;;;;5032216;28;20033;-83
2023/10/13 03:34:41;;;;;;;6.82;4.50;;;18.10;93.20;;;;;;5015961;28;20026;-84
2023/10/13 03:37:40;;;;;;;5.75;4.05;;;18.10;93.20;;;;;;5018542;28;20159;-84
2023/10/13 03:39:59;;;;;;;5.78;3.97;;;18.10;93.20;;;;;;5033108;28;20540;-84
2023/10/13 03:42:25;;;;;;;5.47;3.75;;;18.10;93.20;;;;;;5018264;28;20025;-84
2023/10/13 03:44:54;;;;;;;5.97;3.97;;;18.10;93.20;;;;;;5018306;28;20168;-84
2023/10/13 03:47:26;;;;;;;6.35;4.07;;;18.10;93.30;;;;;;5018364;28;20013;-84
2023/10/13 03:50:14;;;;;;;6.05;4.20;;;18.10;93.20;;;;;;5018556;28;20560;-84
2023/10/13 03:52:39;;;;;;;6.55;4.22;;;18.10;93.30;;;;;;5035598;28;20104;-83
2023/10/13 03:55:05;;;;;;;6.70;4.40;;;18.10;93.30;;;;;;5018157;28;20124;-84
2023/10/13 03:57:37;;;;;;;6.05;4.00;;;18.10;93.30;;;;;;5035881;28;20033;-84
2023/10/13 04:00:09;;;;;;;6.32;4.38;;;18.10;93.30;;;;;;5018225;28;20036;-84
2023/10/13 04:02:36;;;;;;;6.78;4.28;;;18.10;93.30;;;;;;5017934;28;20032;-84
2023/10/13 04:05:08;;;;;;;6.55;4.28;;;18.10;93.30;;;;;;5017963;28;20028;-84
2023/10/13 04:07:39;;;;;;;6.15;4.00;;;18.10;93.30;;;;;;5018034;28;20033;-84
2023/10/13 04:21:39;;;;;;;5.88;3.80;;;18.10;93.40;;;;;;4934853;29;20036;-85
2023/10/13 04:32:29;;;;;;;5.85;3.90;;;18.10;93.30;;;;;;5021397;28;20040;-85
2023/10/13 04:37:58;;;;;;;6.05;3.97;;;18.10;93.30;;;;;;5015685;28;20034;-85
2023/10/13 04:40:28;;;;;;;5.95;3.80;;;18.20;93.30;;;;;;4998001;28;20028;-85
2023/10/13 04:42:56;;;;;;;6.00;3.55;;;18.10;93.30;;;;;;5022270;28;20005;-85
2023/10/13 06:32:51;;;;;;;5.30;3.38;;;18.00;93.30;;;;;;4937102;29;20043;-84
2023/10/13 06:39:46;;;;;;;5.60;3.42;;;18.00;93.40;;;;;;4951707;29;20078;-84
2023/10/13 07:11:52;;;;;;;;;;;;;;;;;;;;;
2023/10/13 08:00:53;;;;;;;5.35;2.58;;;18.10;93.80;;;;;;4893835;29;20186;-85
2023/10/13 09:27:26;;;;;;;;;;;;;;;;;;;;;
2023/10/13 09:30:34;;;;;;;;;;;;;;;;;;;;;
2023/10/13 09:33:08;;;;;;;4.80;2.50;;;18.60;93.10;;;;;;4955350;28;20027;-85
2023/10/13 09:36:00;;;;;;;5.18;2.72;;;18.60;93.10;;;;;;4956188;29;20066;-85
2023/10/13 09:39:10;;;;;;;4.15;2.22;;;18.70;93.10;;;;;;4952727;29;20502;-85
2023/10/13 09:41:46;;;;;;;3.92;2.28;;;18.50;93.00;;;;;;4955133;29;20039;-84
2023/10/13 09:44:46;;;;;;;3.47;2.25;;;18.50;93.10;;;;;;4938098;29;20733;-83
2023/10/13 09:47:29;;;;;;;4.13;2.22;;;18.40;93.10;;;;;;4937358;29;20560;-85
2023/10/13 09:50:47;;;;;;;3.92;2.28;;;19.10;93.40;;;;;;4955079;29;20034;-84
2023/10/13 09:54:09;;;;;;;5.05;2.20;;;18.50;93.30;;;;;;4937174;29;20030;-85
2023/10/13 09:57:14;;;;;;;;;;;;;;;;;;;;;
2023/10/13 10:00:06;;;;;;;3.88;2.20;;;18.30;93.30;;;;;;4955052;29;20034;-84
2023/10/13 10:03:14;;;;;;;4.35;2.17;;;18.50;93.40;;;;;;4954163;29;20024;-85
2023/10/13 10:05:50;;;;;;;4.50;2.17;;;18.40;93.30;;;;;;4937684;29;20027;-84
2023/10/13 10:12:00;;;;;;;4.55;2.20;;;18.50;93.40;;;;;;4947296;29;20110;-85
2023/10/13 10:15:18;;;;;;;5.22;2.40;;;17.90;93.20;;;;;;4934121;29;20061;-84
2023/10/13 10:17:55;;;;;;;4.82;2.53;;;18.50;93.40;;;;;;4937258;29;20031;-84
2023/10/13 10:20:45;;;;;;;3.42;2.13;;;18.60;93.50;;;;;;4937524;29;20078;-84
2023/10/13 10:23:35;;;;;;;3.92;2.20;;;18.40;93.40;;;;;;4937533;29;20043;-85
2023/10/13 10:26:20;;;;;;;3.85;2.22;;;18.50;93.40;;;;;;4937352;29;20956;-84
2023/10/13 10:29:30;;;;;;;4.28;2.20;;;18.40;93.40;;;;;;4937787;29;20028;-84
2023/10/13 10:32:20;;;;;;;4.47;2.25;;;17.20;93.00;;;;;;4936544;29;20062;-85
2023/10/13 10:34:48;;;;;;;4.13;2.30;;;18.60;93.30;;;;;;4936862;29;20035;-83
2023/10/13 10:37:15;;;;;;;3.88;2.28;;;18.70;93.20;;;;;;4937474;29;20035;-84
2023/10/13 10:39:49;;;;;;;3.95;2.28;;;18.60;93.10;;;;;;4936965;29;20035;-84
2023/10/13 10:42:15;;;;;;;3.78;2.10;;;18.70;93.00;;;;;;4938301;29;20037;-84
2023/10/13 10:44:43;;;;;;;4.13;2.30;;;18.70;93.00;;;;;;4953961;28;20023;-84
2023/10/13 10:47:10;;;;;;;3.63;2.17;;;18.80;93.00;;;;;;4937041;29;20493;-84
2023/10/13 10:49:40;;;;;;;4.07;2.20;;;18.70;93.00;;;;;;4935865;29;20027;-83
2023/10/13 10:52:17;;;;;;;3.95;2.35;;;18.70;92.90;;;;;;4935059;29;20032;-83
2023/10/13 10:54:44;;;;;;;4.63;2.33;;;18.70;93.00;;;;;;4933277;29;20040;-84
2023/10/13 10:57:17;;;;;;;3.47;2.10;;;18.80;93.00;;;;;;4933499;29;20024;-83
2023/10/13 10:59:43;;;;;;;5.93;2.35;;;18.70;93.00;;;;;;4934560;29;20490;-84
2023/10/13 11:02:08;;;;;;;4.80;2.30;;;18.80;93.00;;;;;;4933268;29;20042;-84
2023/10/13 11:04:41;;;;;;;4.20;2.17;;;18.80;93.00;;;;;;4933101;29;20134;-84
2023/10/13 11:07:08;;;;;;;5.03;2.40;;;18.80;93.00;;;;;;4933854;29;20118;-84
2023/10/13 11:09:45;;;;;;;3.42;2.10;;;18.80;93.00;;;;;;4933578;29;20050;-84
2023/10/13 11:12:15;;;;;;;4.50;2.40;;;18.80;93.00;;;;;;4933345;29;20074;-83
2023/10/13 11:14:46;;;;;;;4.35;2.40;;;18.80;93.00;;;;;;4933703;29;20123;-83
2023/10/13 11:17:26;;;;;;;4.35;2.30;;;18.80;93.10;;;;;;4935750;29;20036;-84
2023/10/13 11:19:52;;;;;;;3.72;2.20;;;18.70;93.10;;;;;;4931485;28;20050;-83
2023/10/13 11:25:11;;;;;;;4.60;2.33;;;18.70;93.20;;;;;;4974026;28;20093;-82
2023/10/13 11:27:59;;;;;;;4.13;2.10;;;18.70;93.10;;;;;;4957080;28;20089;-83
2023/10/13 11:30:31;;;;;;;4.60;2.47;;;18.70;93.10;;;;;;4956297;28;20089;-84
2023/10/13 11:32:58;;;;;;;4.47;2.35;;;18.80;93.10;;;;;;4956022;28;20031;-83
2023/10/13 11:35:23;;;;;;;5.00;2.40;;;18.80;93.10;;;;;;4938280;29;20055;-83
2023/10/13 11:38:25;;;;;;;3.95;2.42;;;18.80;93.00;;;;;;4918291;29;20075;-83
2023/10/13 11:41:06;;;;;;;4.22;2.35;;;18.80;93.00;;;;;;4932163;29;20046;-82
2023/10/13 11:48:37;;;;;;;4.50;2.20;;;18.90;93.10;;;;;;4935168;29;20024;-84
2023/10/13 11:51:07;;;;;;;6.43;2.67;;;18.80;93.10;;;;;;4918103;29;20067;-84
2023/10/13 11:53:34;;;;;;;5.00;2.60;;;18.80;93.10;;;;;;4917248;29;20120;-84
2023/10/13 11:55:59;;;;;;;4.72;2.42;;;18.70;93.10;;;;;;4920054;29;20059;-83
2023/10/13 11:58:25;;;;;;;4.10;2.15;;;18.60;93.10;;;;;;4921515;29;20067;-84
2023/10/13 12:00:51;;;;;;;4.93;2.40;;;18.70;93.20;;;;;;4939312;29;20032;-83
2023/10/13 12:06:19;;;;;;;4.28;2.40;;;18.80;93.30;;;;;;4939320;29;20108;-83
2023/10/13 12:08:52;;;;;;;4.18;2.30;;;18.70;93.20;;;;;;4922154;29;20028;-83
2023/10/13 12:11:38;;;;;;;5.43;2.40;;;18.60;93.20;;;;;;4921622;29;20614;-83
2023/10/13 12:14:16;;;;;;;4.05;2.40;;;18.70;93.20;;;;;;4946788;28;20038;-84
2023/10/13 12:16:48;;;;;;;3.97;2.22;;;18.70;93.20;;;;;;4937564;29;20047;-83
2023/10/13 12:19:16;;;;;;;5.45;2.75;;;18.70;93.20;;;;;;4936749;29;20039;-84
2023/10/13 12:21:43;;;;;;;4.25;2.22;;;18.70;93.20;;;;;;4937704;29;20477;-84
2023/10/13 12:24:22;;;;;;;5.70;2.70;;;18.70;93.20;;;;;;4935171;29;20024;-83
2023/10/13 12:26:48;;;;;;;4.20;2.25;;;18.80;93.30;;;;;;4936316;29;20028;-82
2023/10/13 12:29:22;;;;;;;4.82;2.55;;;18.70;93.30;;;;;;4935386;29;20059;-83
2023/10/13 12:32:05;;;;;;;5.80;2.60;;;18.70;93.20;;;;;;4936265;29;20031;-83
2023/10/13 12:37:38;;;;;;;5.90;2.75;;;18.70;93.20;;;;;;4937394;29;20409;-83
2023/10/13 12:51:23;;;;;;;6.07;2.83;;;18.70;93.20;;;;;;4936727;29;20043;-83
2023/10/13 12:53:51;;;;;;;5.15;2.53;;;18.60;93.20;;;;;;4935667;29;20039;-83
2023/10/13 12:56:17;;;;;;;6.65;2.70;;;18.60;93.20;;;;;;4935848;29;20063;-83
2023/10/13 12:58:51;;;;;;;5.10;2.50;;;18.70;93.20;;;;;;4935465;29;20090;-83
2023/10/13 13:01:21;;;;;;;5.70;2.90;;;18.60;93.30;;;;;;4936243;29;20030;-83
2023/10/13 13:03:55;;;;;;;5.70;2.65;;;18.60;93.20;;;;;;4934798;29;20572;-83
2023/10/13 13:06:25;;;;;;;5.05;2.40;;;18.60;93.30;;;;;;4934813;29;20409;-83
2023/10/13 13:08:52;;;;;;;5.18;2.58;;;18.70;93.30;;;;;;4936309;29;20042;-82
2023/10/13 13:11:17;;;;;;;5.20;2.63;;;18.60;93.30;;;;;;4936450;29;20103;-83
2023/10/13 13:13:46;;;;;;;5.15;2.65;;;18.60;93.30;;;;;;4934871;29;20147;-83
2023/10/13 13:16:12;;;;;;;5.50;2.83;;;18.60;93.30;;;;;;4934996;29;20036;-83
2023/10/13 13:18:37;;;;;;;4.10;2.40;;;18.60;93.30;;;;;;4934943;29;20045;-83
2023/10/13 13:21:06;;;;;;;6.60;2.90;;;18.60;93.30;;;;;;4935253;29;20032;-84
2023/10/13 13:23:32;;;;;;;5.15;2.50;;;18.60;93.30;;;;;;4936225;29;20023;-83
2023/10/13 13:25:58;;;;;;;6.25;2.72;;;18.60;93.60;;;;;;4935044;29;20028;-82
2023/10/13 13:28:24;;;;;;;5.47;2.80;;;18.60;93.30;;;;;;4935194;29;20031;-83
2023/10/13 13:30:50;;;;;;;5.93;2.80;;;18.60;93.40;;;;;;4934755;29;20035;-83
2023/10/13 13:33:17;;;;;;;6.43;2.80;;;18.60;93.30;;;;;;4934619;29;20055;-83
2023/10/13 13:35:43;;;;;;;6.18;2.45;;;18.50;93.30;;;;;;4934955;29;20036;-83
2023/10/13 13:38:30;;;;;;;6.97;3.00;;;18.70;93.20;;;;;;4934124;29;20599;-82
2023/10/13 13:40:55;;;;;;;7.78;2.85;;;18.70;93.20;;;;;;4934591;29;20040;-83
2023/10/13 13:43:31;;;;;;;6.57;2.60;;;18.60;93.20;;;;;;4934126;29;20490;-83
2023/10/13 13:46:00;;;;;;;4.53;2.40;;;18.60;93.20;;;;;;4934022;29;20111;-83
2023/10/13 13:48:27;;;;;;;6.68;3.05;;;18.70;93.20;;;;;;4935953;29;20114;-83
2023/10/13 13:51:03;;;;;;;4.95;2.85;;;18.70;93.20;;;;;;4935488;29;20039;-82
2023/10/13 13:53:31;;;;;;;5.28;2.97;;;18.60;93.20;;;;;;4933566;29;20082;-83
2023/10/13 13:56:02;;;;;;;6.80;3.10;;;18.60;93.20;;;;;;4935875;29;20062;-83
2023/10/13 13:58:28;;;;;;;5.22;2.90;;;18.60;93.20;;;;;;4935245;29;20059;-83
2023/10/13 14:01:00;;;;;;;5.97;2.72;;;18.70;93.30;;;;;;4931824;29;20074;-83
2023/10/13 14:03:45;;;;;;;5.40;2.88;;;18.60;93.30;;;;;;4931339;29;20028;-84
2023/10/13 14:06:18;;;;;;;6.53;3.08;;;18.60;93.30;;;;;;4931386;29;20031;-83
2023/10/13 14:08:48;;;;;;;6.78;3.22;;;18.60;93.30;;;;;;4936330;29;20486;-84
2023/10/13 14:14:04;;;;;;;6.07;2.88;;;18.60;93.30;;;;;;4936282;29;20127;-83
2023/10/13 14:16:33;;;;;;;6.78;3.35;;;18.60;93.30;;;;;;4935227;29;20087;-84
2023/10/13 14:19:01;;;;;;;7.10;2.97;;;18.60;93.30;;;;;;4936579;29;20031;-84
2023/10/13 14:21:27;;;;;;;7.28;2.90;;;18.60;93.30;;;;;;4937772;29;20036;-83
2023/10/13 14:23:53;;;;;;;5.47;2.72;;;18.60;93.30;;;;;;4938621;29;20398;-83
2023/10/13 14:26:21;;;;;;;7.22;3.33;;;18.60;93.40;;;;;;4939031;29;20031;-84
2023/10/13 14:29:00;;;;;;;5.43;2.92;;;18.60;93.40;;;;;;4939035;29;20027;-83
2023/10/13 14:31:29;;;;;;;6.22;3.08;;;18.60;93.40;;;;;;4938641;29;20042;-81
2023/10/13 14:33:56;;;;;;;7.60;3.35;;;18.60;93.40;;;;;;4938561;29;20508;-83
2023/10/13 14:36:22;;;;;;;6.03;3.30;;;18.60;93.30;;;;;;4938653;29;20454;-83
2023/10/13 14:38:49;;;;;;;6.25;3.17;;;18.60;93.30;;;;;;4939948;29;20023;-83
2023/10/13 14:41:18;;;;;;;6.18;3.45;;;18.60;93.20;;;;;;4938490;29;20111;-84
2023/10/13 14:43:47;;;;;;;7.72;3.33;;;18.60;93.20;;;;;;4938578;29;20052;-83
2023/10/13 14:46:23;;;;;;;6.78;3.17;;;18.60;93.30;;;;;;4938600;29;20024;-84
2023/10/13 14:48:52;;;;;;;6.85;3.30;;;18.60;93.20;;;;;;4939489;29;20027;-83
2023/10/13 14:51:18;;;;;;;6.22;3.33;;;18.60;93.30;;;;;;4934923;29;20032;-83
2023/10/13 14:53:44;;;;;;;5.82;3.40;;;18.60;93.30;;;;;;4934282;29;20028;-81
2023/10/13 14:56:17;;;;;;;6.13;3.13;;;18.60;93.30;;;;;;4936146;29;20110;-82
2023/10/13 14:58:43;;;;;;;7.35;3.30;;;18.60;93.30;;;;;;4934414;29;20549;-81
2023/10/13 15:01:15;;;;;;;7.88;3.40;;;18.60;93.30;;;;;;4934316;29;20501;-81
2023/10/13 15:03:44;;;;;;;5.85;3.20;;;18.50;93.30;;;;;;4933782;29;20046;-81
2023/10/13 15:06:29;;;;;;;7.25;3.35;;;18.50;93.40;;;;;;4934303;29;20038;-81
2023/10/13 15:08:59;;;;;;;7.65;3.67;;;18.50;93.40;;;;;;4934140;29;20023;-81
2023/10/13 15:11:26;;;;;;;6.68;3.13;;;18.50;93.40;;;;;;4935362;29;20557;-80
2023/10/13 15:13:53;;;;;;;5.97;3.13;;;18.50;93.40;;;;;;4933861;29;20063;-81
2023/10/13 15:16:26;;;;;;;7.25;3.47;;;18.60;93.40;;;;;;4934121;29;20036;-81
2023/10/13 15:18:53;;;;;;;5.97;3.10;;;18.50;93.40;;;;;;4934369;29;20035;-78
2023/10/13 15:21:34;;;;;;;6.50;3.42;;;18.50;93.40;;;;;;4935155;29;20035;-81
2023/10/13 15:24:03;;;;;;;6.50;3.17;;;18.50;93.40;;;;;;4933915;29;20064;-81
2023/10/13 15:26:30;;;;;;;7.00;3.40;;;18.50;93.40;;;;;;4934314;29;20030;-82
2023/10/13 15:28:57;;;;;;;7.57;3.40;;;18.50;93.40;;;;;;4934256;29;20120;-82
2023/10/13 15:31:26;;;;;;;5.90;2.95;;;18.50;93.50;;;;;;4937815;29;20127;-83
2023/10/13 15:33:54;;;;;;;6.78;3.30;;;18.50;93.40;;;;;;4937693;29;20036;-82
2023/10/13 15:36:23;;;;;;;7.10;3.63;;;18.60;93.70;;;;;;4937876;29;20032;-82
2023/10/13 15:38:51;;;;;;;6.50;3.20;;;18.60;93.40;;;;;;4939542;29;20035;-82
2023/10/13 15:41:22;;;;;;;6.53;2.95;;;18.50;93.30;;;;;;4937881;29;20027;-84
2023/10/13 15:43:49;;;;;;;6.32;3.22;;;18.60;93.30;;;;;;4937804;29;20032;-84
2023/10/13 15:46:22;;;;;;;6.35;3.15;;;18.60;93.30;;;;;;4938980;29;20016;-82
2023/10/13 15:48:48;;;;;;;6.60;3.15;;;18.50;93.30;;;;;;4937701;29;20035;-83
2023/10/13 15:51:14;;;;;;;6.53;3.30;;;18.50;93.30;;;;;;4937607;29;20035;-83
2023/10/13 15:53:40;;;;;;;5.70;2.90;;;18.50;93.30;;;;;;4937256;29;20395;-84
2023/10/13 15:56:11;;;;;;;6.47;3.40;;;18.50;93.30;;;;;;4937535;29;20035;-84
2023/10/13 15:58:43;;;;;;;6.97;3.50;;;18.50;93.40;;;;;;4939384;29;20027;-82
2023/10/13 16:01:13;;;;;;;7.20;3.35;;;18.50;93.30;;;;;;4956534;29;20035;-84
2023/10/13 16:03:50;;;;;;;7.40;3.55;;;18.50;93.40;;;;;;4940232;29;20082;-85
2023/10/13 16:06:16;;;;;;;6.38;3.47;;;18.50;93.40;;;;;;4956335;29;20110;-86
2023/10/13 16:08:42;;;;;;;6.00;3.15;;;18.50;93.40;;;;;;4940655;29;20038;-83
2023/10/13 16:11:17;;;;;;;6.10;3.00;;;18.50;93.40;;;;;;4956450;29;20031;-82
2023/10/13 16:13:53;;;;;;;6.65;3.38;;;18.50;93.40;;;;;;4940247;29;20034;-83
2023/10/13 16:16:24;;;;;;;7.15;3.28;;;18.50;93.40;;;;;;4940698;29;20027;-83
2023/10/13 16:18:51;;;;;;;7.30;3.15;;;18.50;93.40;;;;;;4957567;29;20497;-83
2023/10/13 16:21:17;;;;;;;8.20;3.15;;;18.50;93.40;;;;;;4940118;29;20035;-84
2023/10/13 16:23:48;;;;;;;6.22;3.28;;;18.50;93.50;;;;;;4939962;29;20102;-83
2023/10/13 16:26:14;;;;;;;6.28;3.08;;;18.50;93.40;;;;;;4940343;29;20027;-84
2023/10/13 16:28:39;;;;;;;7.45;3.40;;;18.50;93.70;;;;;;4940162;29;20498;-83
2023/10/13 16:31:07;;;;;;;7.43;2.83;;;18.50;93.50;;;;;;4948517;28;20045;-83
2023/10/13 16:33:37;;;;;;;6.18;3.08;;;18.40;93.50;;;;;;4976358;28;20026;-83
2023/10/13 16:36:08;;;;;;;5.82;3.05;;;18.50;93.70;;;;;;4959091;28;20031;-83
2023/10/13 16:38:35;;;;;;;;;;;18.50;93.40;;;;;;4959593;28;20069;-83
2023/10/13 16:41:05;;;;;;;7.63;3.30;;;18.50;93.40;;;;;;4958328;28;20369;-83
2023/10/13 16:43:35;;;;;;;7.55;3.58;;;18.50;93.40;;;;;;4958770;28;20082;-84
2023/10/13 16:46:06;;;;;;;6.30;3.30;;;18.50;93.30;;;;;;4976350;28;20106;-83
2023/10/13 16:48:32;;;;;;;8.32;3.22;;;18.50;93.30;;;;;;4959030;28;20031;-83
2023/10/13 16:50:59;;;;;;;5.88;3.03;;;18.50;93.30;;;;;;4959010;28;20026;-83
2023/10/13 16:53:25;;;;;;;7.50;3.17;;;18.50;93.30;;;;;;4958522;28;20030;-82
2023/10/13 16:55:51;;;;;;;8.45;3.28;;;18.50;93.30;;;;;;4958636;28;20035;-83
2023/10/13 16:58:16;;;;;;;7.88;3.40;;;18.50;93.30;;;;;;4958794;28;20105;-85
2023/10/13 17:00:44;;;;;;;5.65;2.90;;;18.50;93.40;;;;;;4975189;28;20478;-83
2023/10/13 17:03:11;;;;;;;6.13;2.95;;;18.50;93.40;;;;;;4975007;28;20023;-84
2023/10/13 17:05:42;;;;;;;44.35;7.22;;;18.50;93.40;;;;;;4958547;28;20026;-84
2023/10/13 17:08:07;;;;;;;38.63;6.93;;;18.60;93.50;;;;;;4958693;28;20027;-84
2023/10/13 17:10:34;;;;;;;40.03;7.47;;;18.70;93.20;;;;;;4958451;28;20023;-84
2023/10/13 17:13:04;;;;;;;39.17;6.60;;;18.80;93.10;;;;;;4958444;28;20027;-84
2023/10/13 17:15:34;;;;;;;37.40;6.50;;;18.80;93.10;;;;;;4958639;28;20019;-86
2023/10/13 17:18:05;;;;;;;25.55;6.22;;;18.70;93.20;;;;;;4952435;29;20470;-83
2023/10/13 17:20:33;;;;;;;31.42;6.35;;;18.60;93.30;;;;;;4939110;29;20106;-83
2023/10/13 17:22:59;;;;;;;29.60;5.30;;;18.60;93.50;;;;;;4938494;28;20079;-82
2023/10/13 17:25:25;;;;;;;24.10;5.25;;;18.60;93.50;;;;;;4938916;29;20024;-82
2023/10/13 17:27:52;;;;;;;28.85;5.97;;;18.60;93.60;;;;;;4939255;29;20019;-82
2023/10/13 17:30:18;;;;;;;26.52;5.25;;;18.50;93.60;;;;;;4939114;29;20027;-82
2023/10/13 17:32:44;;;;;;;27.63;5.80;;;18.50;93.60;;;;;;4956056;28;20478;-81
2023/10/13 17:35:13;;;;;;;20.15;5.28;;;18.50;93.60;;;;;;4938936;29;20050;-82
2023/10/13 17:37:42;;;;;;;20.55;5.30;;;18.50;93.60;;;;;;4938977;29;20038;-82
2023/10/13 17:40:15;;;;;;;19.30;5.43;;;18.50;93.60;;;;;;4956037;29;20027;-83
2023/10/13 17:42:49;;;;;;;23.60;5.57;;;18.50;93.60;;;;;;4955832;29;20482;-83
2023/10/13 17:45:15;;;;;;;18.40;4.53;;;18.50;93.50;;;;;;4937547;29;20046;-83
2023/10/13 17:47:41;;;;;;;21.60;5.43;;;18.60;93.40;;;;;;4938758;29;20030;-83
2023/10/13 17:50:07;;;;;;;18.02;5.05;;;18.50;93.40;;;;;;4938647;29;20023;-83
2023/10/13 17:52:36;;;;;;;19.70;4.93;;;18.50;93.40;;;;;;4954907;28;20026;-83
2023/10/13 17:55:05;;;;;;;19.48;4.95;;;18.50;93.40;;;;;;4938368;29;20576;-82
2023/10/13 17:57:33;;;;;;;16.73;4.70;;;18.50;93.40;;;;;;4938545;29;20066;-82
2023/10/13 17:59:59;;;;;;;12.90;4.47;;;18.50;93.50;;;;;;4938560;29;20454;-82
2023/10/13 18:02:26;;;;;;;17.77;4.75;;;18.50;93.60;;;;;;4938407;29;20331;-83
2023/10/13 18:04:51;;;;;;;19.73;4.63;;;18.50;93.50;;;;;;4938166;29;20070;-83
2023/10/13 18:07:17;;;;;;;14.07;4.60;;;18.50;93.50;;;;;;4938614;29;20051;-83
2023/10/13 18:09:44;;;;;;;12.55;4.13;;;18.50;93.50;;;;;;4938402;29;20023;-83
2023/10/13 18:12:10;;;;;;;16.40;4.95;;;18.50;93.60;;;;;;4955232;29;20030;-83
2023/10/13 18:14:39;;;;;;;12.05;4.45;;;18.50;93.60;;;;;;4938266;29;20027;-83
2023/10/13 18:17:08;;;;;;;15.98;4.55;;;18.50;93.60;;;;;;4955420;29;20405;-83
2023/10/13 18:19:35;;;;;;;13.20;4.75;;;18.40;93.60;;;;;;4948398;28;20027;-82
2023/10/13 18:22:03;;;;;;;17.33;5.05;;;18.40;93.60;;;;;;4974461;28;20027;-84
2023/10/13 18:24:29;;;;;;;10.73;4.53;;;18.40;93.60;;;;;;4956200;28;20051;-84
2023/10/13 18:26:56;;;;;;;13.57;4.32;;;18.40;93.60;;;;;;4951524;28;20038;-82
2023/10/13 18:29:22;;;;;;;12.52;4.18;;;18.50;93.60;;;;;;4938135;29;20064;-84
2023/10/13 18:31:47;;;;;;;13.57;3.80;;;18.40;93.60;;;;;;4955416;29;20038;-84
2023/10/13 18:34:13;;;;;;;11.27;3.97;;;18.40;93.60;;;;;;4937720;29;20037;-84
2023/10/13 18:36:39;;;;;;;15.23;5.05;;;18.50;93.60;;;;;;4955060;29;20035;-83
2023/10/13 18:39:09;;;;;;;13.27;4.70;;;18.50;93.60;;;;;;4937811;29;20035;-83
2023/10/13 18:41:36;;;;;;;11.77;4.30;;;18.50;93.60;;;;;;4937744;29;20066;-83
2023/10/13 18:44:03;;;;;;;9.75;4.53;;;18.50;93.50;;;;;;4937435;29;20031;-84
2023/10/13 18:46:29;;;;;;;15.82;5.13;;;18.40;93.50;;;;;;4937716;29;20074;-84